sensor_id;sensor_type;location;lat;lon;timestamp;pressure;altitude;pressure_sealevel;temperature;humidity
9421;BME280;4749;51.398;5.466;2024-03-02T00:01:21;99628.91;;;9.62;100.00
9421;BME280;4749;51.398;5.466;2024-03-02T00:03:50;99643.75;;;9.64;100.00
9421;BME280;4749;51.398;5.466;2024-03-02T00:06:20;99659.50;;;9.63;100.00
9421;BME280;4749;51.398;5.466;2024-03-02T00:08:48;99718.16;;;9.60;100.00
9421;BME280;4749;51.398;5.466;2024-03-02T00:11:16;99747.03;;;9.57;100.00
9421;BME280;4749;51.398;5.466;2024-03-02T00:13:43;99728.84;;;9.42;100.00
9421;BME280;4749;51.398;5.466;2024-03-02T00:16:11;99737.75;;;9.24;100.00
9421;BME280;4749;51.398;5.466;2024-03-02T00:18:39;99753.63;;;9.10;100.00
9421;BME280;4749;51.398;5.466;2024-03-02T00:21:07;99755.47;;;8.97;100.00
9421;BME280;4749;51.398;5.466;2024-03-02T00:23:40;99738.97;;;8.85;100.00
9421;BME280;4749;51.398;5.466;2024-03-02T00:26:07;99740.81;;;8.75;100.00
9421;BME280;4749;51.398;5.466;2024-03-02T00:28:40;99751.34;;;8.64;100.00
9421;BME280;4749;51.398;5.466;2024-03-02T00:31:12;99745.28;;;8.56;100.00
9421;BME280;4749;51.398;5.466;2024-03-02T00:33:45;99746.22;;;8.51;100.00
9421;BME280;4749;51.398;5.466;2024-03-02T00:36:15;99747.97;;;8.45;100.00
9421;BME280;4749;51.398;5.466;2024-03-02T00:38:49;99753.28;;;8.36;100.00
9421;BME280;4749;51.398;5.466;2024-03-02T00:41:24;99747.16;;;8.34;100.00
9421;BME280;4749;51.398;5.466;2024-03-02T00:44:06;99751.50;;;8.32;100.00
9421;BME280;4749;51.398;5.466;2024-03-02T00:46:38;99751.50;;;8.32;100.00
9421;BME280;4749;51.398;5.466;2024-03-02T00:49:12;99756.72;;;8.32;100.00
9421;BME280;4749;51.398;5.466;2024-03-02T00:51:41;99762.84;;;8.31;100.00
9421;BME280;4749;51.398;5.466;2024-03-02T00:54:14;99761.13;;;8.30;100.00
9421;BME280;4749;51.398;5.466;2024-03-02T00:56:42;99755.88;;;8.30;100.00
9421;BME280;4749;51.398;5.466;2024-03-02T00:59:10;99753.25;;;8.30;100.00
9421;BME280;4749;51.398;5.466;2024-03-02T01:01:37;99752.38;;;8.30;100.00
9421;BME280;4749;51.398;5.466;2024-03-02T01:04:05;99757.66;;;8.28;100.00
9421;BME280;4749;51.398;5.466;2024-03-02T01:06:32;99755.91;;;8.27;100.00
9421;BME280;4749;51.398;5.466;2024-03-02T01:08:59;99749.81;;;8.25;100.00
9421;BME280;4749;51.398;5.466;2024-03-02T01:11:26;99744.56;;;8.25;100.00
9421;BME280;4749;51.398;5.466;2024-03-02T01:13:53;99755.06;;;8.25;100.00
9421;BME280;4749;51.398;5.466;2024-03-02T01:16:21;99749.81;;;8.27;100.00
9421;BME280;4749;51.398;5.466;2024-03-02T01:18:48;99757.66;;;8.28;100.00
9421;BME280;4749;51.398;5.466;2024-03-02T01:21:16;99760.22;;;8.31;100.00
9421;BME280;4749;51.398;5.466;2024-03-02T01:23:43;99760.22;;;8.31;100.00
9421;BME280;4749;51.398;5.466;2024-03-02T01:26:11;99768.09;;;8.33;100.00
9421;BME280;4749;51.398;5.466;2024-03-02T01:28:38;99766.34;;;8.32;100.00
9421;BME280;4749;51.398;5.466;2024-03-02T01:31:05;99760.22;;;8.31;100.00
9421;BME280;4749;51.398;5.466;2024-03-02T01:33:32;99773.34;;;8.33;100.00
9421;BME280;4749;51.398;5.466;2024-03-02T01:35:59;99769.84;;;8.34;100.00
9421;BME280;4749;51.398;5.466;2024-03-02T01:38:26;99769.88;;;8.35;100.00
9421;BME280;4749;51.398;5.466;2024-03-02T01:40:55;99760.25;;;8.36;100.00
9421;BME280;4749;51.398;5.466;2024-03-02T01:43:24;99755.91;;;8.35;100.00
9421;BME280;4749;51.398;5.466;2024-03-02T01:45:51;99755.91;;;8.35;100.00
9421;BME280;4749;51.398;5.466;2024-03-02T01:48:18;99767.22;;;8.34;100.00
9421;BME280;4749;51.398;5.466;2024-03-02T01:50:46;99766.34;;;8.33;100.00
9421;BME280;4749;51.398;5.466;2024-03-02T01:53:13;99768.09;;;8.31;100.00
9421;BME280;4749;51.398;5.466;2024-03-02T01:55:40;99775.94;;;8.31;100.00
9421;BME280;4749;51.398;5.466;2024-03-02T01:58:07;99782.91;;;8.32;100.00
9421;BME280;4749;51.398;5.466;2024-03-02T02:00:34;99775.06;;;8.31;100.00
9421;BME280;4749;51.398;5.466;2024-03-02T02:03:01;99776.81;;;8.32;100.00
9421;BME280;4749;51.398;5.466;2024-03-02T02:05:28;99774.22;;;8.30;100.00
9421;BME280;4749;51.398;5.466;2024-03-02T02:07:55;99770.72;;;8.30;100.00
9421;BME280;4749;51.398;5.466;2024-03-02T02:10:25;99773.34;;;8.28;100.00
9421;BME280;4749;51.398;5.466;2024-03-02T02:12:52;99771.63;;;8.27;100.00
9421;BME280;4749;51.398;5.466;2024-03-02T02:15:30;99774.25;;;8.26;100.00
9421;BME280;4749;51.398;5.466;2024-03-02T02:17:58;99761.16;;;8.23;100.00
9421;BME280;4749;51.398;5.466;2024-03-02T02:20:26;99752.44;;;8.21;100.00
9421;BME280;4749;51.398;5.466;2024-03-02T02:23:02;99765.56;;;8.16;100.00
9421;BME280;4749;51.398;5.466;2024-03-02T02:25:30;99767.28;;;8.15;100.00
9421;BME280;4749;51.398;5.466;2024-03-02T02:27:57;99763.81;;;8.13;100.00
9421;BME280;4749;51.398;5.466;2024-03-02T02:30:29;99765.56;;;8.14;100.00
9421;BME280;4749;51.398;5.466;2024-03-02T02:32:57;99751.59;;;8.12;100.00
9421;BME280;4749;51.398;5.466;2024-03-02T02:35:25;99748.97;;;8.14;100.00
9421;BME280;4749;51.398;5.466;2024-03-02T02:37:54;99752.47;;;8.13;100.00
9421;BME280;4749;51.398;5.466;2024-03-02T02:40:22;99745.47;;;8.15;100.00
9421;BME280;4749;51.398;5.466;2024-03-02T02:42:50;99752.47;;;8.16;100.00
9421;BME280;4749;51.398;5.466;2024-03-02T02:45:19;99758.56;;;8.18;100.00
9421;BME280;4749;51.398;5.466;2024-03-02T02:47:46;99768.19;;;8.16;100.00
9421;BME280;4749;51.398;5.466;2024-03-02T02:50:14;99763.81;;;8.12;100.00
9421;BME280;4749;51.398;5.466;2024-03-02T02:52:42;99756.88;;;8.08;100.00
9421;BME280;4749;51.398;5.466;2024-03-02T02:55:12;99755.13;;;8.07;100.00
9421;BME280;4749;51.398;5.466;2024-03-02T02:57:41;99765.59;;;8.05;100.00
9421;BME280;4749;51.398;5.466;2024-03-02T03:00:14;99769.97;;;8.05;100.00
9421;BME280;4749;51.398;5.466;2024-03-02T03:02:47;99773.47;;;8.04;100.00
9421;BME280;4749;51.398;5.466;2024-03-02T03:05:16;99764.75;;;8.03;100.00
9421;BME280;4749;51.398;5.466;2024-03-02T03:07:44;99773.47;;;8.02;100.00
9421;BME280;4749;51.398;5.466;2024-03-02T03:10:12;99774.34;;;8.01;100.00
9421;BME280;4749;51.398;5.466;2024-03-02T03:12:40;99763.91;;;8.00;100.00
9421;BME280;4749;51.398;5.466;2024-03-02T03:15:10;99763.88;;;7.98;100.00
9421;BME280;4749;51.398;5.466;2024-03-02T03:17:38;99782.22;;;7.95;100.00
9421;BME280;4749;51.398;5.466;2024-03-02T03:20:06;99775.22;;;7.97;100.00
9421;BME280;4749;51.398;5.466;2024-03-02T03:22:37;99772.59;;;7.97;100.00
9421;BME280;4749;51.398;5.466;2024-03-02T03:25:05;99779.59;;;8.00;100.00
9421;BME280;4749;51.398;5.466;2024-03-02T03:27:35;99777.84;;;8.00;100.00
9421;BME280;4749;51.398;5.466;2024-03-02T03:30:03;99771.75;;;8.00;100.00
9421;BME280;4749;51.398;5.466;2024-03-02T03:32:30;99782.22;;;8.01;100.00
9421;BME280;4749;51.398;5.466;2024-03-02T03:34:57;99789.19;;;8.02;100.00
9421;BME280;4749;51.398;5.466;2024-03-02T03:37:24;99803.13;;;8.04;100.00
9421;BME280;4749;51.398;5.466;2024-03-02T03:39:53;99796.13;;;8.05;100.00
9421;BME280;4749;51.398;5.466;2024-03-02T03:42:21;99784.78;;;8.04;100.00
9421;BME280;4749;51.398;5.466;2024-03-02T03:44:48;99775.22;;;8.03;100.00
9421;BME280;4749;51.398;5.466;2024-03-02T03:47:15;99798.75;;;8.03;100.00
9421;BME280;4749;51.398;5.466;2024-03-02T03:49:42;99778.72;;;8.01;100.00
9421;BME280;4749;51.398;5.466;2024-03-02T03:52:09;99783.97;;;8.01;100.00
9421;BME280;4749;51.398;5.466;2024-03-02T03:54:36;99794.44;;;7.99;100.00
9421;BME280;4749;51.398;5.466;2024-03-02T03:57:05;99788.28;;;7.99;100.00
9421;BME280;4749;51.398;5.466;2024-03-02T03:59:32;99793.53;;;7.97;100.00
9421;BME280;4749;51.398;5.466;2024-03-02T04:02:00;99796.16;;;7.96;100.00
9421;BME280;4749;51.398;5.466;2024-03-02T04:04:27;99792.69;;;7.94;100.00
9421;BME280;4749;51.398;5.466;2024-03-02T04:06:54;99794.47;;;7.92;100.00
9421;BME280;4749;51.398;5.466;2024-03-02T04:09:21;99800.56;;;7.89;100.00
9421;BME280;4749;51.398;5.466;2024-03-02T04:11:48;99797.09;;;7.84;100.00
9421;BME280;4749;51.398;5.466;2024-03-02T04:14:16;99798.84;;;7.79;100.00
9421;BME280;4749;51.398;5.466;2024-03-02T04:16:43;99798.00;;;7.75;100.00
9421;BME280;4749;51.398;5.466;2024-03-02T04:19:10;99797.13;;;7.70;100.00
9421;BME280;4749;51.398;5.466;2024-03-02T04:21:37;99801.50;;;7.67;100.00
9421;BME280;4749;51.398;5.466;2024-03-02T04:24:04;99801.50;;;7.65;100.00
9421;BME280;4749;51.398;5.466;2024-03-02T04:26:32;99794.53;;;7.67;100.00
9421;BME280;4749;51.398;5.466;2024-03-02T04:28:59;99785.78;;;7.68;100.00
9421;BME280;4749;51.398;5.466;2024-03-02T04:31:26;99793.63;;;7.73;100.00
9421;BME280;4749;51.398;5.466;2024-03-02T04:33:53;99799.75;;;7.75;100.00
9421;BME280;4749;51.398;5.466;2024-03-02T04:36:21;99800.59;;;7.77;100.00
9421;BME280;4749;51.398;5.466;2024-03-02T04:38:48;99797.97;;;7.80;100.00
9421;BME280;4749;51.398;5.466;2024-03-02T04:41:15;99792.72;;;7.84;100.00
9421;BME280;4749;51.398;5.466;2024-03-02T04:43:42;99793.59;;;7.86;100.00
9421;BME280;4749;51.398;5.466;2024-03-02T04:46:10;99801.41;;;7.89;100.00
9421;BME280;4749;51.398;5.466;2024-03-02T04:48:38;99794.44;;;7.90;100.00
9421;BME280;4749;51.398;5.466;2024-03-02T04:51:05;99805.81;;;7.90;100.00
9421;BME280;4749;51.398;5.466;2024-03-02T04:53:32;99802.28;;;7.90;100.00
9421;BME280;4749;51.398;5.466;2024-03-02T04:55:59;99803.16;;;7.89;100.00
9421;BME280;4749;51.398;5.466;2024-03-02T04:58:45;99804.06;;;7.86;100.00
9421;BME280;4749;51.398;5.466;2024-03-02T05:01:12;99808.41;;;7.81;100.00
9421;BME280;4749;51.398;5.466;2024-03-02T05:03:39;99812.78;;;7.73;100.00
9421;BME280;4749;51.398;5.466;2024-03-02T05:06:06;99804.97;;;7.64;100.00
9421;BME280;4749;51.398;5.466;2024-03-02T05:08:35;99809.34;;;7.56;100.00
9421;BME280;4749;51.398;5.466;2024-03-02T05:11:03;99819.84;;;7.48;100.00
9421;BME280;4749;51.398;5.466;2024-03-02T05:13:48;99822.47;;;7.41;100.00
9421;BME280;4749;51.398;5.466;2024-03-02T05:16:15;99827.69;;;7.36;100.00
9421;BME280;4749;51.398;5.466;2024-03-02T05:18:42;99823.34;;;7.33;100.00
9421;BME280;4749;51.398;5.466;2024-03-02T05:21:09;99830.28;;;7.36;100.00
9421;BME280;4749;51.398;5.466;2024-03-02T05:23:36;99821.59;;;7.40;100.00
9421;BME280;4749;51.398;5.466;2024-03-02T05:26:04;99818.97;;;7.43;100.00
9421;BME280;4749;51.398;5.466;2024-03-02T05:28:31;99834.63;;;7.48;100.00
9421;BME280;4749;51.398;5.466;2024-03-02T05:30:58;99830.28;;;7.50;100.00
9421;BME280;4749;51.398;5.466;2024-03-02T05:33:25;99843.34;;;7.56;100.00
9421;BME280;4749;51.398;5.466;2024-03-02T05:35:52;99840.75;;;7.59;100.00
9421;BME280;4749;51.398;5.466;2024-03-02T05:38:20;99841.59;;;7.61;100.00
9421;BME280;4749;51.398;5.466;2024-03-02T05:40:48;99852.06;;;7.66;100.00
9421;BME280;4749;51.398;5.466;2024-03-02T05:43:16;99845.97;;;7.65;100.00
9421;BME280;4749;51.398;5.466;2024-03-02T05:45:43;99836.38;;;7.66;100.00
9421;BME280;4749;51.398;5.466;2024-03-02T05:48:10;99841.59;;;7.64;100.00
9421;BME280;4749;51.398;5.466;2024-03-02T05:50:38;99839.88;;;7.60;100.00
9421;BME280;4749;51.398;5.466;2024-03-02T05:53:05;99838.13;;;7.57;100.00
9421;BME280;4749;51.398;5.466;2024-03-02T05:55:32;99844.25;;;7.58;100.00
9421;BME280;4749;51.398;5.466;2024-03-02T05:57:59;99839.88;;;7.60;100.00
9421;BME280;4749;51.398;5.466;2024-03-02T06:00:33;99845.09;;;7.61;100.00
9421;BME280;4749;51.398;5.466;2024-03-02T06:03:00;99846.84;;;7.62;100.00
9421;BME280;4749;51.398;5.466;2024-03-02T06:05:27;99840.72;;;7.62;100.00
9421;BME280;4749;51.398;5.466;2024-03-02T06:07:54;99848.59;;;7.60;100.00
9421;BME280;4749;51.398;5.466;2024-03-02T06:10:21;99852.06;;;7.56;100.00
9421;BME280;4749;51.398;5.466;2024-03-02T06:12:49;99852.06;;;7.53;100.00
9421;BME280;4749;51.398;5.466;2024-03-02T06:15:16;99860.81;;;7.49;100.00
9421;BME280;4749;51.398;5.466;2024-03-02T06:17:44;99863.41;;;7.43;100.00
9421;BME280;4749;51.398;5.466;2024-03-02T06:20:11;99859.91;;;7.38;100.00
9421;BME280;4749;51.398;5.466;2024-03-02T06:22:38;99866.03;;;7.34;100.00
9421;BME280;4749;51.398;5.466;2024-03-02T06:25:06;99865.16;;;7.32;100.00
9421;BME280;4749;51.398;5.466;2024-03-02T06:27:33;99859.03;;;7.30;100.00
9421;BME280;4749;51.398;5.466;2024-03-02T06:30:00;99868.63;;;7.31;100.00
9421;BME280;4749;51.398;5.466;2024-03-02T06:32:27;99867.75;;;7.30;100.00
9421;BME280;4749;51.398;5.466;2024-03-02T06:34:55;99864.31;;;7.31;100.00
9421;BME280;4749;51.398;5.466;2024-03-02T06:37:22;99866.03;;;7.32;100.00
9421;BME280;4749;51.398;5.466;2024-03-02T06:39:49;99875.63;;;7.33;100.00
9421;BME280;4749;51.398;5.466;2024-03-02T06:42:16;99874.75;;;7.38;100.00
9421;BME280;4749;51.398;5.466;2024-03-02T06:44:43;99877.38;;;7.41;100.00
9421;BME280;4749;51.398;5.466;2024-03-02T06:47:10;99877.34;;;7.47;100.00
9421;BME280;4749;51.398;5.466;2024-03-02T06:49:38;99878.22;;;7.52;100.00
9421;BME280;4749;51.398;5.466;2024-03-02T06:52:05;99885.22;;;7.59;100.00
9421;BME280;4749;51.398;5.466;2024-03-02T06:54:33;99890.44;;;7.68;100.00
9421;BME280;4749;51.398;5.466;2024-03-02T06:57:01;99885.22;;;7.74;100.00
9421;BME280;4749;51.398;5.466;2024-03-02T06:59:28;99900.00;;;7.80;100.00
9421;BME280;4749;51.398;5.466;2024-03-02T07:01:55;99903.50;;;7.83;100.00
9421;BME280;4749;51.398;5.466;2024-03-02T07:04:23;99903.50;;;7.86;100.00
9421;BME280;4749;51.398;5.466;2024-03-02T07:06:51;99907.88;;;7.90;100.00
9421;BME280;4749;51.398;5.466;2024-03-02T07:09:18;99907.84;;;7.97;100.00
9421;BME280;4749;51.398;5.466;2024-03-02T07:11:49;99913.09;;;8.00;100.00
9421;BME280;4749;51.398;5.466;2024-03-02T07:14:18;99907.84;;;8.03;100.00
9421;BME280;4749;51.398;5.466;2024-03-02T07:16:45;99906.94;;;8.05;100.00
9421;BME280;4749;51.398;5.466;2024-03-02T07:19:12;99909.56;;;8.08;100.00
9421;BME280;4749;51.398;5.466;2024-03-02T07:21:39;99909.56;;;8.10;100.00
9421;BME280;4749;51.398;5.466;2024-03-02T07:24:07;99912.19;;;8.11;100.00
9421;BME280;4749;51.398;5.466;2024-03-02T07:26:36;99910.44;;;8.12;100.00
9421;BME280;4749;51.398;5.466;2024-03-02T07:29:06;99908.69;;;8.12;100.00
9421;BME280;4749;51.398;5.466;2024-03-02T07:31:33;99903.44;;;8.11;100.00
9421;BME280;4749;51.398;5.466;2024-03-02T07:34:00;99915.66;;;8.10;100.00
9421;BME280;4749;51.398;5.466;2024-03-02T07:36:27;99920.91;;;8.09;100.00
9421;BME280;4749;51.398;5.466;2024-03-02T07:38:55;99916.53;;;8.05;100.00
9421;BME280;4749;51.398;5.466;2024-03-02T07:41:22;99915.69;;;8.03;100.00
9421;BME280;4749;51.398;5.466;2024-03-02T07:43:49;99912.19;;;8.02;100.00
9421;BME280;4749;51.398;5.466;2024-03-02T07:46:16;99910.44;;;8.03;100.00
9421;BME280;4749;51.398;5.466;2024-03-02T07:48:43;99914.81;;;8.01;100.00
9421;BME280;4749;51.398;5.466;2024-03-02T07:51:10;99919.16;;;7.99;100.00
9421;BME280;4749;51.398;5.466;2024-03-02T07:53:37;99924.44;;;8.00;100.00
9421;BME280;4749;51.398;5.466;2024-03-02T07:56:04;99920.06;;;8.01;100.00
9421;BME280;4749;51.398;5.466;2024-03-02T07:58:33;99925.28;;;8.04;100.00
9421;BME280;4749;51.398;5.466;2024-03-02T08:01:01;99922.63;;;8.07;100.00
9421;BME280;4749;51.398;5.466;2024-03-02T08:03:28;99928.78;;;8.09;100.00
9421;BME280;4749;51.398;5.466;2024-03-02T08:05:56;99925.25;;;8.11;100.00
9421;BME280;4749;51.398;5.466;2024-03-02T08:08:23;99927.88;;;8.19;100.00
9421;BME280;4749;51.398;5.466;2024-03-02T08:10:50;99922.59;;;8.30;100.00
9421;BME280;4749;51.398;5.466;2024-03-02T08:13:17;99928.72;;;8.39;100.00
9421;BME280;4749;51.398;5.466;2024-03-02T08:15:44;99931.28;;;8.49;100.00
9421;BME280;4749;51.398;5.466;2024-03-02T08:18:12;99931.28;;;8.59;100.00
9421;BME280;4749;51.398;5.466;2024-03-02T08:20:40;99939.09;;;8.70;100.00
9421;BME280;4749;51.398;5.466;2024-03-02T08:23:07;99934.69;;;8.78;100.00
9421;BME280;4749;51.398;5.466;2024-03-02T08:25:35;99914.56;;;8.86;100.00
9421;BME280;4749;51.398;5.466;2024-03-02T08:28:02;99929.34;;;8.96;100.00
9421;BME280;4749;51.398;5.466;2024-03-02T08:30:29;99932.81;;;9.03;100.00
9421;BME280;4749;51.398;5.466;2024-03-02T08:32:57;99931.94;;;9.09;100.00
9421;BME280;4749;51.398;5.466;2024-03-02T08:35:24;99926.59;;;9.21;100.00
9421;BME280;4749;51.398;5.466;2024-03-02T08:37:51;99930.03;;;9.29;100.00
9421;BME280;4749;51.398;5.466;2024-03-02T08:40:19;99934.38;;;9.36;100.00
9421;BME280;4749;51.398;5.466;2024-03-02T08:42:46;99933.44;;;9.43;100.00
9421;BME280;4749;51.398;5.466;2024-03-02T08:45:14;99936.88;;;9.50;100.00
9421;BME280;4749;51.398;5.466;2024-03-02T08:47:41;99938.56;;;9.57;100.00
9421;BME280;4749;51.398;5.466;2024-03-02T08:50:09;99934.16;;;9.64;100.00
9421;BME280;4749;51.398;5.466;2024-03-02T08:52:36;99943.72;;;9.71;100.00
9421;BME280;4749;51.398;5.466;2024-03-02T08:55:03;99929.69;;;9.76;100.00
9421;BME280;4749;51.398;5.466;2024-03-02T08:57:31;99931.44;;;9.77;100.00
9421;BME280;4749;51.398;5.466;2024-03-02T08:59:59;99940.09;;;9.87;100.00
9421;BME280;4749;51.398;5.466;2024-03-02T09:02:26;99943.53;;;9.94;100.00
9421;BME280;4749;51.398;5.466;2024-03-02T09:04:54;99931.25;;;9.96;100.00
9421;BME280;4749;51.398;5.466;2024-03-02T09:07:21;99934.72;;;10.01;100.00
9421;BME280;4749;51.398;5.466;2024-03-02T09:09:48;99941.69;;;10.00;100.00
9421;BME280;4749;51.398;5.466;2024-03-02T09:12:16;99949.59;;;10.02;100.00
9421;BME280;4749;51.398;5.466;2024-03-02T09:14:43;99946.00;;;10.07;100.00
9421;BME280;4749;51.398;5.466;2024-03-02T09:17:10;99945.06;;;10.16;100.00
9421;BME280;4749;51.398;5.466;2024-03-02T09:19:39;99950.25;;;10.25;100.00
9421;BME280;4749;51.398;5.466;2024-03-02T09:22:06;99946.66;;;10.34;100.00
9421;BME280;4749;51.398;5.466;2024-03-02T09:24:34;99938.66;;;10.46;100.00
9421;BME280;4749;51.398;5.466;2024-03-02T09:27:01;99949.06;;;10.55;100.00
9421;BME280;4749;51.398;5.466;2024-03-02T09:29:28;99946.31;;;10.64;100.00
9421;BME280;4749;51.398;5.466;2024-03-02T09:31:56;99949.75;;;10.71;100.00
9421;BME280;4749;51.398;5.466;2024-03-02T09:34:23;99945.28;;;10.78;100.00
9421;BME280;4749;51.398;5.466;2024-03-02T09:36:51;99953.09;;;10.85;100.00
9421;BME280;4749;51.398;5.466;2024-03-02T09:39:19;99949.53;;;10.89;100.00
9421;BME280;4749;51.398;5.466;2024-03-02T09:41:47;99942.56;;;10.85;100.00
9421;BME280;4749;51.398;5.466;2024-03-02T09:44:15;99949.53;;;10.88;100.00
9421;BME280;4749;51.398;5.466;2024-03-02T09:46:42;99938.22;;;10.81;100.00
9421;BME280;4749;51.398;5.466;2024-03-02T09:49:11;99946.03;;;10.89;100.00
9421;BME280;4749;51.398;5.466;2024-03-02T09:51:39;99953.75;;;10.99;100.00
9421;BME280;4749;51.398;5.466;2024-03-02T09:54:10;99945.91;;;10.98;100.00
9421;BME280;4749;51.398;5.466;2024-03-02T09:56:48;99945.16;;;10.88;100.00
9421;BME280;4749;51.398;5.466;2024-03-02T09:59:15;99946.88;;;10.91;100.00
9421;BME280;4749;51.398;5.466;2024-03-02T10:01:58;99956.25;;;11.12;100.00
9421;BME280;4749;51.398;5.466;2024-03-02T10:04:27;99950.13;;;11.10;100.00
9421;BME280;4749;51.398;5.466;2024-03-02T10:07:14;99944.63;;;11.28;100.00
9421;BME280;4749;51.398;5.466;2024-03-02T10:09:43;99944.50;;;11.36;100.00
9421;BME280;4749;51.398;5.466;2024-03-02T10:12:14;99943.50;;;11.44;100.00
9421;BME280;4749;51.398;5.466;2024-03-02T10:14:42;99934.59;;;11.53;100.00
9421;BME280;4749;51.398;5.466;2024-03-02T10:17:12;99931.84;;;11.61;100.00
9421;BME280;4749;51.398;5.466;2024-03-02T10:19:40;99915.91;;;11.68;100.00
9421;BME280;4749;51.398;5.466;2024-03-02T10:22:09;99926.38;;;11.73;100.00
9421;BME280;4749;51.398;5.466;2024-03-02T10:24:39;99930.66;;;11.80;100.00
9421;BME280;4749;51.398;5.466;2024-03-02T10:27:10;99925.28;;;11.88;100.00
9421;BME280;4749;51.398;5.466;2024-03-02T10:29:39;99931.31;;;11.94;100.00
9421;BME280;4749;51.398;5.466;2024-03-02T10:32:10;99940.00;;;11.99;100.00
9421;BME280;4749;51.398;5.466;2024-03-02T10:34:44;99930.19;;;12.07;100.00
9421;BME280;4749;51.398;5.466;2024-03-02T10:37:11;99932.75;;;12.10;100.00
9421;BME280;4749;51.398;5.466;2024-03-02T10:39:40;99933.56;;;12.16;100.00
9421;BME280;4749;51.398;5.466;2024-03-02T10:42:08;99938.72;;;12.22;100.00
9421;BME280;4749;51.398;5.466;2024-03-02T10:44:35;99926.34;;;12.25;100.00
9421;BME280;4749;51.398;5.466;2024-03-02T10:47:05;99925.41;;;12.29;100.00
9421;BME280;4749;51.398;5.466;2024-03-02T10:49:34;99912.94;;;12.37;100.00
9421;BME280;4749;51.398;5.466;2024-03-02T10:52:07;99906.59;;;12.48;100.00
9421;BME280;4749;51.398;5.466;2024-03-02T10:54:36;99914.25;;;12.61;100.00
9421;BME280;4749;51.398;5.466;2024-03-02T10:57:07;99913.34;;;12.62;100.00
9421;BME280;4749;51.398;5.466;2024-03-02T10:59:40;99909.63;;;12.71;100.00
9421;BME280;4749;51.398;5.466;2024-03-02T11:02:12;99894.25;;;12.91;100.00
9421;BME280;4749;51.398;5.466;2024-03-02T11:04:41;99895.84;;;12.99;100.00
9421;BME280;4749;51.398;5.466;2024-03-02T11:07:10;99897.53;;;13.01;100.00
9421;BME280;4749;51.398;5.466;2024-03-02T11:09:42;99900.13;;;13.03;100.00
9421;BME280;4749;51.398;5.466;2024-03-02T11:12:29;99906.44;;;12.97;100.00
9421;BME280;4749;51.398;5.466;2024-03-02T11:14:57;99897.75;;;12.92;100.00
9421;BME280;4749;51.398;5.466;2024-03-02T11:17:25;99897.75;;;12.92;100.00
9421;BME280;4749;51.398;5.466;2024-03-02T11:19:53;99900.91;;;13.08;100.00
9421;BME280;4749;51.398;5.466;2024-03-02T11:22:21;99897.03;;;13.26;100.00
9421;BME280;4749;51.398;5.466;2024-03-02T11:24:49;99904.44;;;13.47;100.00
9421;BME280;4749;51.398;5.466;2024-03-02T11:33:07;99900.34;;;13.71;100.00
9421;BME280;4749;51.398;5.466;2024-03-02T11:35:41;99902.19;;;13.67;100.00
9421;BME280;4749;51.398;5.466;2024-03-02T11:38:15;99900.63;;;13.59;100.00
9421;BME280;4749;51.398;5.466;2024-03-02T11:40:42;99894.63;;;13.52;100.00
9421;BME280;4749;51.398;5.466;2024-03-02T11:43:11;99889.47;;;13.47;100.00
9421;BME280;4749;51.398;5.466;2024-03-02T11:45:38;99897.53;;;13.41;100.00
9421;BME280;4749;51.398;5.466;2024-03-02T11:48:14;99887.88;;;13.40;100.00
9421;BME280;4749;51.398;5.466;2024-03-02T11:50:47;99883.38;;;13.45;100.00
9421;BME280;4749;51.398;5.466;2024-03-02T11:53:17;99884.94;;;13.52;100.00
9421;BME280;4749;51.398;5.466;2024-03-02T11:55:45;99886.47;;;13.61;100.00
9421;BME280;4749;51.398;5.466;2024-03-02T11:58:16;99872.22;;;13.68;100.00
9421;BME280;4749;51.398;5.466;2024-03-02T12:00:54;99872.16;;;13.71;100.00
9421;BME280;4749;51.398;5.466;2024-03-02T12:03:24;99869.50;;;13.71;100.00
9421;BME280;4749;51.398;5.466;2024-03-02T12:05:54;99868.38;;;13.82;100.00
9421;BME280;4749;51.398;5.466;2024-03-02T12:08:21;99861.75;;;13.98;100.00
9421;BME280;4749;51.398;5.466;2024-03-02T12:10:59;99860.66;;;14.06;100.00
9421;BME280;4749;51.398;5.466;2024-03-02T12:13:28;99852.56;;;14.13;100.00
9421;BME280;4749;51.398;5.466;2024-03-02T12:15:56;99852.31;;;14.20;100.00
9421;BME280;4749;51.398;5.466;2024-03-02T12:18:24;99841.94;;;14.14;100.00
9421;BME280;4749;51.398;5.466;2024-03-02T12:20:53;99822.66;;;14.11;100.00
9421;BME280;4749;51.398;5.466;2024-03-02T12:23:23;99824.13;;;14.21;100.00
9421;BME280;4749;51.398;5.466;2024-03-02T12:25:51;99816.66;;;14.35;100.00
9421;BME280;4749;51.398;5.466;2024-03-02T12:28:18;99819.94;;;14.43;100.00
9421;BME280;4749;51.398;5.466;2024-03-02T12:30:46;99814.38;;;14.54;100.00
9421;BME280;4749;51.398;5.466;2024-03-02T12:33:15;99813.06;;;14.69;100.00
9421;BME280;4749;51.398;5.466;2024-03-02T12:35:43;99821.56;;;14.80;100.00
9421;BME280;4749;51.398;5.466;2024-03-02T12:38:10;99823.63;;;14.98;100.00
9421;BME280;4749;51.398;5.466;2024-03-02T12:40:38;99822.41;;;15.08;100.00
9421;BME280;4749;51.398;5.466;2024-03-02T12:43:06;99821.47;;;15.09;100.00
9421;BME280;4749;51.398;5.466;2024-03-02T12:45:35;99820.69;;;15.07;98.16
9421;BME280;4749;51.398;5.466;2024-03-02T12:48:03;99817.28;;;15.02;97.67
9421;BME280;4749;51.398;5.466;2024-03-02T12:50:33;99814.81;;;14.98;93.52
9421;BME280;4749;51.398;5.466;2024-03-02T12:53:00;99812.19;;;14.96;93.23
9421;BME280;4749;51.398;5.466;2024-03-02T12:55:28;99805.75;;;15.05;93.17
9421;BME280;4749;51.398;5.466;2024-03-02T12:57:56;99803.47;;;15.20;92.98
9421;BME280;4749;51.398;5.466;2024-03-02T13:00:24;99804.56;;;15.41;91.84
9421;BME280;4749;51.398;5.466;2024-03-02T13:02:51;99789.78;;;15.61;92.52
9421;BME280;4749;51.398;5.466;2024-03-02T13:05:19;99781.44;;;15.73;91.67
9421;BME280;4749;51.398;5.466;2024-03-02T13:07:48;99794.69;;;15.73;89.89
9421;BME280;4749;51.398;5.466;2024-03-02T13:10:16;99784.03;;;15.74;89.15
9421;BME280;4749;51.398;5.466;2024-03-02T13:12:45;99782.22;;;15.75;89.69
9421;BME280;4749;51.398;5.466;2024-03-02T13:15:13;99777.75;;;15.77;88.67
9421;BME280;4749;51.398;5.466;2024-03-02T13:17:45;99777.91;;;15.72;88.58
9421;BME280;4749;51.398;5.466;2024-03-02T13:20:16;99777.34;;;15.63;88.25
9421;BME280;4749;51.398;5.466;2024-03-02T13:22:45;99769.53;;;15.58;88.06
9421;BME280;4749;51.398;5.466;2024-03-02T13:25:12;99774.94;;;15.55;86.73
9421;BME280;4749;51.398;5.466;2024-03-02T13:27:39;99759.41;;;15.44;86.63
9421;BME280;4749;51.398;5.466;2024-03-02T13:30:07;99767.78;;;15.32;86.74
9421;BME280;4749;51.398;5.466;2024-03-02T13:32:36;99761.88;;;15.24;87.44